Time;durP1;ratioP1;P1;durP2;ratioP2;P2;SDS_P1;SDS_P2;PMS_P1;PMS_P2;Temp;Humidity;BMP_temperature;BMP_pressure;BME280_temperature;BME280_humidity;BME280_pressure;Samples;Min_cycle;Max_cycle;Signal;HPM_P1;HPM_P2
2023/09/15 00:00:52;;;;;;;7.97;7.38;;;;;;;11.56;95.87;102090.28;6199777;22;20108;-86
2023/09/15 00:03:21;;;;;;;12.07;7.90;;;;;;;11.52;95.72;102093.03;6223816;22;20044;-86
2023/09/15 00:05:48;;;;;;;9.00;8.10;;;;;;;11.48;95.85;102095.03;6200860;22;20548;-86
2023/09/15 00:08:14;;;;;;;10.80;8.25;;;;;;;11.47;95.94;102082.84;6199965;22;20048;-86
2023/09/15 00:10:41;;;;;;;9.52;8.63;;;;;;;11.44;96.35;102086.34;6224086;22;20016;-86
2023/09/15 00:13:08;;;;;;;10.23;9.05;;;;;;;11.42;95.83;102086.00;6249698;22;20464;-86
2023/09/15 00:15:35;;;;;;;10.65;9.52;;;;;;;11.38;96.62;102085.31;6222143;22;20025;-86
2023/09/15 00:18:02;;;;;;;9.95;8.90;;;;;;;11.36;97.28;102079.66;6222991;22;20086;-86
2023/09/15 00:20:30;;;;;;;9.43;8.63;;;;;;;11.33;97.41;102083.13;6198421;22;20016;-87
2023/09/15 00:22:57;;;;;;;11.95;8.75;;;;;;;11.31;96.90;102080.88;6222673;22;20032;-86
2023/09/15 00:25:26;;;;;;;9.48;8.18;;;;;;;11.32;96.57;102086.97;6249032;22;20537;-86
2023/09/15 00:27:58;;;;;;;9.55;8.27;;;;;;;11.30;96.87;102084.72;6253820;22;20040;-86
2023/09/15 00:30:25;;;;;;;;;;;;;;;11.30;96.14;102076.72;6235116;22;20043;-87
2023/09/15 00:32:52;;;;;;;10.05;7.40;;;;;;;11.24;96.21;102070.34;6224715;22;20357;-86
2023/09/15 00:35:22;;;;;;;12.25;8.23;;;;;;;11.22;96.59;102079.91;6221817;22;20025;-86
2023/09/15 00:37:50;;;;;;;9.02;8.20;;;;;;;11.18;96.42;102072.03;6249749;22;20036;-86
2023/09/15 00:40:20;;;;;;;10.75;8.57;;;;;;;11.14;96.68;102075.91;6248797;22;21013;-85
2023/09/15 00:42:50;;;;;;;10.55;8.25;;;;;;;11.10;96.64;102072.56;6197537;22;20473;-86
2023/09/15 00:45:22;;;;;;;9.85;8.77;;;;;;;11.07;96.80;102076.03;6197141;22;20060;-86
2023/09/15 00:47:52;;;;;;;11.07;8.45;;;;;;;11.05;97.15;102073.03;6222815;22;20023;-86
2023/09/15 00:50:24;;;;;;;9.18;8.27;;;;;;;11.01;96.51;102070.44;6196720;22;20016;-87
2023/09/15 00:53:11;;;;;;;9.55;8.15;;;;;;;11.00;96.72;102064.34;6222112;22;20017;-87
2023/09/15 00:55:41;;;;;;;10.13;8.60;;;;;;;10.97;96.94;102059.09;6248556;22;20055;-86
2023/09/15 00:58:11;;;;;;;10.77;9.10;;;;;;;10.94;96.56;102060.66;6221765;22;20091;-86
2023/09/15 01:00:43;;;;;;;9.63;8.80;;;;;;;10.92;96.76;102065.66;6221927;22;20048;-86
2023/09/15 01:03:20;;;;;;;10.55;9.35;;;;;;;10.89;96.79;102063.06;6221839;22;20235;-86
2023/09/15 01:05:47;;;;;;;10.65;8.98;;;;;;;10.87;96.47;102060.03;6249124;22;20028;-86
2023/09/15 01:08:14;;;;;;;10.02;8.60;;;;;;;10.84;95.74;102064.28;6221777;22;20013;-86
2023/09/15 01:10:41;;;;;;;9.25;8.23;;;;;;;10.83;96.64;102064.69;6249084;22;20076;-86
2023/09/15 01:13:08;;;;;;;10.60;8.02;;;;;;;10.81;96.70;102054.44;6248747;22;20478;-86
2023/09/15 01:15:56;;;;;;;8.57;7.68;;;;;;;10.79;96.65;102053.38;6196884;22;20094;-86
2023/09/15 01:18:39;;;;;;;8.70;7.80;;;;;;;10.76;96.62;102054.19;6196591;22;20477;-86
2023/09/15 01:21:31;;;;;;;9.65;8.70;;;;;;;10.75;96.93;102055.34;6248953;22;20020;-86
2023/09/15 01:24:30;;;;;;;10.30;8.27;;;;;;;10.71;96.75;102047.41;6248974;22;20020;-86
2023/09/15 01:27:35;;;;;;;9.15;8.25;;;;;;;10.68;96.84;102042.91;6249352;22;20021;-86
2023/09/15 01:30:04;;;;;;;9.70;8.13;;;;;;;10.65;97.13;102041.03;6126382;23;20022;-86
2023/09/15 01:32:33;;;;;;;9.48;8.25;;;;;;;10.61;96.97;102037.69;6101731;23;20449;-86
2023/09/15 01:35:06;;;;;;;9.43;8.45;;;;;;;10.59;97.15;102035.44;6078120;23;20361;-86
2023/09/15 01:37:32;;;;;;;10.88;8.55;;;;;;;10.54;97.39;102037.81;6101992;23;20465;-86
2023/09/15 01:39:59;;;;;;;9.55;8.63;;;;;;;10.53;97.98;102037.06;6077973;23;20102;-86
2023/09/15 01:42:26;;;;;;;10.13;8.93;;;;;;;10.53;97.52;102036.31;6128203;23;20015;-86
2023/09/15 01:44:54;;;;;;;9.40;8.38;;;;;;;10.50;97.83;102035.22;6102494;23;20023;-87
2023/09/15 01:47:22;;;;;;;10.27;9.10;;;;;;;10.48;97.50;102034.88;6125373;23;20826;-87
2023/09/15 01:49:53;;;;;;;9.65;8.75;;;;;;;10.48;97.49;102032.19;6103450;23;20101;-87
2023/09/15 01:52:21;;;;;;;11.32;10.23;;;;;;;10.43;97.38;102038.00;6102898;23;20421;-86
2023/09/15 01:54:51;;;;;;;10.27;9.27;;;;;;;10.40;97.64;102035.41;6079952;23;20891;-87
2023/09/15 01:57:18;;;;;;;10.07;9.07;;;;;;;10.38;97.95;102033.16;6079349;23;20019;-86
2023/09/15 01:59:45;;;;;;;9.75;8.75;;;;;;;10.37;98.07;102036.22;6109471;22;20063;-86
2023/09/15 02:02:12;;;;;;;9.18;8.30;;;;;;;10.34;97.94;102032.47;6200615;22;20009;-86
2023/09/15 02:04:39;;;;;;;8.77;7.80;;;;;;;10.33;97.83;102030.97;6225040;22;20020;-86
2023/09/15 02:07:06;;;;;;;8.70;7.57;;;;;;;10.31;97.77;102034.03;6198894;22;20425;-86
2023/09/15 02:09:33;;;;;;;8.18;7.47;;;;;;;10.30;97.58;102031.78;6225887;22;20043;-85
2023/09/15 02:12:00;;;;;;;7.90;7.22;;;;;;;10.27;97.31;102029.91;6262776;22;20032;-87
2023/09/15 02:14:26;;;;;;;10.15;8.00;;;;;;;10.26;97.74;102026.50;6227154;22;20055;-86
2023/09/15 02:16:53;;;;;;;8.20;7.43;;;;;;;10.25;97.39;102032.97;6253261;22;20027;-86
2023/09/15 02:19:20;;;;;;;8.90;7.45;;;;;;;10.21;97.55;102029.63;6198962;22;20112;-86
2023/09/15 02:21:46;;;;;;;8.63;7.43;;;;;;;10.20;97.75;102035.34;6198408;22;20017;-86
2023/09/15 02:24:14;;;;;;;8.85;8.05;;;;;;;10.18;97.70;102027.75;6223420;22;20020;-86
2023/09/15 02:26:40;;;;;;;7.78;7.18;;;;;;;10.16;97.85;102023.97;6223559;22;20029;-87
2023/09/15 02:29:07;;;;;;;11.23;7.82;;;;;;;10.12;97.35;102021.38;6198895;22;20412;-86
2023/09/15 02:31:34;;;;;;;9.65;8.43;;;;;;;10.10;97.60;102026.34;6226520;22;20039;-86
2023/09/15 02:34:01;;;;;;;10.48;8.02;;;;;;;10.10;97.56;102028.25;6228883;22;20021;-86
2023/09/15 02:36:27;;;;;;;9.15;8.25;;;;;;;10.08;97.79;102025.25;6223679;22;20016;-85
2023/09/15 02:38:54;;;;;;;9.40;8.50;;;;;;;10.04;97.90;102019.97;6224084;22;20024;-87
2023/09/15 02:41:21;;;;;;;9.88;8.30;;;;;;;10.03;97.42;102013.16;6197289;22;20055;-86
2023/09/15 02:43:48;;;;;;;9.27;8.35;;;;;;;10.00;97.76;102028.00;6223332;22;20016;-86
2023/09/15 02:46:15;;;;;;;9.27;8.32;;;;;;;9.98;97.87;102022.38;6223082;22;20027;-86
2023/09/15 02:48:42;;;;;;;10.05;9.23;;;;;;;9.96;97.44;102018.59;6222549;22;20024;-85
2023/09/15 02:51:09;;;;;;;9.23;8.40;;;;;;;9.93;97.94;102011.44;6222089;22;20092;-85
2023/09/15 02:53:36;;;;;;;9.13;8.23;;;;;;;9.91;97.98;102022.47;6223046;22;20091;-86
2023/09/15 02:56:04;;;;;;;10.05;8.52;;;;;;;9.88;97.97;102023.28;6223472;22;20016;-86
2023/09/15 02:58:34;;;;;;;9.70;8.70;;;;;;;9.87;97.79;102021.78;6198640;22;20190;-87
2023/09/15 03:01:11;;;;;;;9.02;8.13;;;;;;;9.85;98.07;102018.00;6222163;22;20021;-86
2023/09/15 03:03:39;;;;;;;10.38;8.32;;;;;;;9.81;98.19;102015.41;6222953;22;20048;-86
2023/09/15 03:06:09;;;;;;;9.25;8.45;;;;;;;9.79;98.04;102015.06;6222018;22;20091;-86
2023/09/15 03:08:36;;;;;;;8.90;8.10;;;;;;;9.79;97.96;102008.97;6222613;22;20031;-86
2023/09/15 03:11:03;;;;;;;9.07;8.25;;;;;;;9.76;98.24;102012.44;6223716;22;20009;-86
2023/09/15 03:13:30;;;;;;;9.23;8.32;;;;;;;9.73;98.10;102008.69;6222152;22;20453;-86
2023/09/15 03:16:07;;;;;;;9.93;8.95;;;;;;;9.70;98.22;102012.13;6198525;22;20450;-86
2023/09/15 03:18:35;;;;;;;12.93;8.95;;;;;;;9.69;98.21;102010.63;6221984;22;20071;-86
2023/09/15 03:21:02;;;;;;;9.85;8.95;;;;;;;9.67;98.59;102007.63;6223903;22;20055;-86
2023/09/15 03:23:29;;;;;;;16.45;9.93;;;;;;;9.63;98.30;102005.00;6251327;22;20012;-85
2023/09/15 03:26:01;;;;;;;10.90;9.57;;;;;;;9.60;98.46;102007.72;6225541;22;20370;-85
2023/09/15 03:28:32;;;;;;;10.48;9.48;;;;;;;9.59;98.42;102004.34;6222866;22;20096;-85
2023/09/15 03:31:00;;;;;;;13.43;10.35;;;;;;;9.57;98.57;102003.22;6250527;22;20009;-86
2023/09/15 03:33:30;;;;;;;10.90;9.85;;;;;;;9.56;98.61;101999.81;6221624;22;20016;-85
2023/09/15 03:36:00;;;;;;;11.30;10.23;;;;;;;9.53;98.45;101992.66;6223031;22;20465;-86
2023/09/15 03:38:27;;;;;;;12.30;10.27;;;;;;;9.51;99.12;101994.19;6222259;22;20042;-85
2023/09/15 03:40:55;;;;;;;15.02;10.68;;;;;;;9.49;99.42;101999.91;6222973;22;20707;-86
2023/09/15 03:43:22;;;;;;;12.25;10.80;;;;;;;9.47;99.42;102001.47;6221923;22;20017;-85
2023/09/15 03:45:52;;;;;;;14.35;10.82;;;;;;;9.44;98.93;101991.63;6223218;22;20021;-85
2023/09/15 03:48:19;;;;;;;11.07;10.07;;;;;;;9.42;99.03;101994.69;6196989;22;20099;-85
2023/09/15 03:50:47;;;;;;;12.13;10.43;;;;;;;9.42;99.51;101984.06;6198951;22;20042;-85
2023/09/15 03:53:13;;;;;;;10.70;9.63;;;;;;;9.41;99.71;101982.56;6223069;22;20012;-85
2023/09/15 03:55:40;;;;;;;10.80;9.75;;;;;;;9.41;99.41;101979.91;6204889;22;20024;-85
2023/09/15 03:58:07;;;;;;;10.73;9.73;;;;;;;9.38;99.30;101979.94;6222872;22;20442;-85
2023/09/15 04:00:34;;;;;;;12.02;10.45;;;;;;;9.36;99.45;101983.00;6222279;22;20690;-86
2023/09/15 04:03:03;;;;;;;11.02;9.93;;;;;;;9.35;99.54;101981.50;6249181;22;20024;-85
2023/09/15 04:05:31;;;;;;;11.27;9.35;;;;;;;9.33;99.72;101981.13;6221673;22;20024;-85
2023/09/15 04:07:57;;;;;;;13.10;9.70;;;;;;;9.31;99.37;101975.47;6197708;22;20114;-85
2023/09/15 04:10:25;;;;;;;9.85;8.85;;;;;;;9.28;99.41;101979.69;6197001;22;20017;-85
2023/09/15 04:12:52;;;;;;;11.80;9.77;;;;;;;9.26;99.24;101979.31;6222308;22;20431;-85
2023/09/15 04:15:18;;;;;;;12.43;10.27;;;;;;;9.25;99.65;101980.47;6249117;22;20485;-85
2023/09/15 04:17:45;;;;;;;11.23;9.48;;;;;;;9.23;99.61;101977.47;6197094;22;20389;-85
2023/09/15 04:20:12;;;;;;;10.52;9.43;;;;;;;9.21;99.33;101973.69;6197281;22;20021;-85
2023/09/15 04:22:40;;;;;;;10.70;9.70;;;;;;;9.21;99.48;101971.03;6222287;22;20028;-85
2023/09/15 04:25:08;;;;;;;11.18;8.65;;;;;;;9.18;99.51;101967.31;6197201;22;20005;-85
2023/09/15 04:27:35;;;;;;;11.70;9.02;;;;;;;9.17;99.57;101976.44;6222078;22;20020;-85
2023/09/15 04:30:02;;;;;;;9.77;8.57;;;;;;;9.15;99.18;101968.09;6197374;22;20021;-86
2023/09/15 04:32:35;;;;;;;9.45;7.93;;;;;;;9.13;99.32;101964.34;6197504;22;20023;-85
2023/09/15 04:35:03;;;;;;;9.30;8.45;;;;;;;9.12;99.30;101968.16;6197659;22;20055;-85
2023/09/15 04:37:29;;;;;;;9.23;8.10;;;;;;;9.08;99.25;101962.88;6221496;22;20040;-85
2023/09/15 04:39:56;;;;;;;9.30;8.40;;;;;;;9.06;98.87;101965.19;6197044;22;20120;-85
2023/09/15 04:42:22;;;;;;;9.70;8.32;;;;;;;9.03;99.09;101963.31;6221496;22;20048;-86
2023/09/15 04:44:50;;;;;;;9.63;8.73;;;;;;;9.01;99.40;101968.28;6222511;22;20725;-86
2023/09/15 04:47:33;;;;;;;8.88;8.00;;;;;;;8.99;99.31;101968.66;6196689;22;20020;-86
2023/09/15 04:50:03;;;;;;;9.25;8.45;;;;;;;8.93;99.32;101962.28;6198091;22;20020;-86
2023/09/15 04:52:29;;;;;;;10.35;9.10;;;;;;;8.92;99.66;101973.31;6221650;22;20023;-86
2023/09/15 04:54:56;;;;;;;11.00;9.40;;;;;;;8.92;99.95;101971.41;6222282;22;20021;-86
2023/09/15 04:57:24;;;;;;;11.65;10.00;;;;;;;8.91;99.48;101969.91;6221557;22;20526;-85
2023/09/15 04:59:53;;;;;;;11.18;9.55;;;;;;;8.90;99.78;101972.94;6197495;22;20524;-86
2023/09/15 05:02:24;;;;;;;15.70;9.68;;;;;;;8.89;99.81;101971.44;6221321;22;20112;-85
2023/09/15 05:04:52;;;;;;;11.93;9.55;;;;;;;8.87;99.74;101969.19;6222516;22;20469;-86
2023/09/15 05:07:20;;;;;;;10.40;9.38;;;;;;;8.87;100.00;101969.19;6196288;22;20402;-86
2023/09/15 05:09:47;;;;;;;12.23;9.70;;;;;;;8.86;99.97;101975.66;6222127;22;20023;-86
2023/09/15 05:12:16;;;;;;;11.07;9.35;;;;;;;8.86;100.00;101980.97;6221353;22;20031;-86
2023/09/15 05:14:42;;;;;;;15.18;9.70;;;;;;;8.84;100.00;101980.59;6220545;22;20477;-86
2023/09/15 05:17:10;;;;;;;11.45;9.45;;;;;;;8.83;100.00;101979.09;6221273;22;20048;-85
2023/09/15 05:19:37;;;;;;;16.83;9.25;;;;;;;8.83;100.00;101987.06;6221619;22;20017;-86
2023/09/15 05:22:05;;;;;;;12.95;8.90;;;;;;;8.85;100.00;101986.66;6222178;22;20013;-86
2023/09/15 05:24:32;;;;;;;9.35;8.45;;;;;;;8.83;100.00;101976.44;6222653;22;20020;-85
2023/09/15 05:26:59;;;;;;;11.65;9.23;;;;;;;8.83;100.00;101983.66;6223458;22;20399;-86
2023/09/15 05:29:27;;;;;;;12.27;8.88;;;;;;;8.82;100.00;101977.59;6222229;22;20095;-85
2023/09/15 05:31:53;;;;;;;27.92;9.32;;;;;;;8.83;100.00;101981.75;6223492;22;20024;-86
2023/09/15 05:34:21;;;;;;;11.88;9.13;;;;;;;8.82;100.00;101982.91;6222604;22;20048;-85
2023/09/15 05:36:49;;;;;;;15.50;9.27;;;;;;;8.84;100.00;101979.84;6227217;22;20387;-86
2023/09/15 05:39:16;;;;;;;11.40;8.95;;;;;;;8.84;100.00;101983.25;6225547;22;20359;-85
2023/09/15 05:41:42;;;;;;;11.25;9.07;;;;;;;8.87;100.00;101985.13;6198358;22;20020;-86
2023/09/15 05:44:09;;;;;;;12.85;9.23;;;;;;;8.92;100.00;101983.94;6223107;22;20017;-87
2023/09/15 05:46:36;;;;;;;14.07;9.00;;;;;;;8.97;100.00;101994.13;6250707;22;20016;-86
2023/09/15 05:49:02;;;;;;;11.90;9.05;;;;;;;8.98;100.00;102000.94;6224028;22;20013;-87
2023/09/15 05:51:29;;;;;;;9.35;8.15;;;;;;;9.02;100.00;101999.75;6249282;22;20055;-82
2023/09/15 05:53:56;;;;;;;10.25;8.95;;;;;;;9.08;100.00;101997.41;6250433;22;20021;-88
2023/09/15 05:56:22;;;;;;;11.13;7.95;;;;;;;9.15;100.00;101993.91;6222529;22;20100;-81
2023/09/15 05:58:49;;;;;;;17.70;8.90;;;;;;;9.23;100.00;101995.31;6249769;22;20060;-83
2023/09/15 06:01:18;;;;;;;15.20;8.32;;;;;;;9.31;100.00;101992.16;6249955;22;20025;-85
2023/09/15 06:03:45;;;;;;;24.20;9.02;;;;;;;9.38;100.00;101987.91;6250179;22;20450;-84
2023/09/15 06:06:12;;;;;;;17.50;8.75;;;;;;;9.42;100.00;101991.28;6222628;22;20031;-83
2023/09/15 06:08:38;;;;;;;15.93;8.32;;;;;;;9.50;100.00;101998.75;6250025;22;20023;-86
2023/09/15 06:11:06;;;;;;;14.30;8.55;;;;;;;9.82;100.00;101992.22;6223700;22;20169;-82
2023/09/15 06:13:34;;;;;;;9.23;8.30;;;;;;;10.80;97.75;101996.25;6249449;22;20016;-84
2023/09/15 06:16:04;;;;;;;12.77;8.68;;;;;;;11.83;91.80;101994.06;6198639;22;20016;-85
2023/09/15 06:18:31;;;;;;;12.88;9.05;;;;;;;11.82;89.15;101997.91;6222417;22;20013;-82
2023/09/15 06:20:58;;;;;;;15.82;8.45;;;;;;;11.95;89.25;102004.09;6249858;22;20063;-83
2023/09/15 06:23:24;;;;;;;12.95;8.15;;;;;;;12.35;86.92;102002.69;6222237;22;20025;-82
2023/09/15 06:25:53;;;;;;;11.48;8.18;;;;;;;12.43;85.92;102002.47;6222909;22;20017;-86
2023/09/15 06:28:20;;;;;;;10.77;8.23;;;;;;;12.46;85.95;102001.63;6221649;22;20063;-83
2023/09/15 06:30:48;;;;;;;9.80;8.60;;;;;;;12.43;86.89;102005.16;6222692;22;20410;-84
2023/09/15 06:33:15;;;;;;;11.45;8.20;;;;;;;12.28;88.40;102010.88;6249474;22;20367;-82
2023/09/15 06:35:42;;;;;;;11.90;8.25;;;;;;;12.28;89.13;102010.88;6222470;22;20075;-85
2023/09/15 06:38:10;;;;;;;13.63;9.38;;;;;;;12.36;88.94;102008.78;6249500;22;20012;-84
2023/09/15 06:40:37;;;;;;;12.05;8.38;;;;;;;12.23;89.96;102011.38;6248699;22;20035;-81
2023/09/15 06:43:06;;;;;;;11.98;8.27;;;;;;;12.17;91.27;102010.38;6222448;22;20437;-81
2023/09/15 06:45:33;;;;;;;12.95;8.35;;;;;;;12.18;91.80;102011.88;6222033;22;20454;-80
2023/09/15 06:48:00;;;;;;;9.13;7.88;;;;;;;12.25;92.12;102016.31;6222284;22;20785;-80
2023/09/15 06:50:26;;;;;;;11.40;7.90;;;;;;;12.31;91.92;102009.28;6222260;22;20017;-81
2023/09/15 06:52:54;;;;;;;16.42;8.45;;;;;;;12.44;92.23;102001.31;6250074;22;20027;-82
2023/09/15 06:55:20;;;;;;;11.18;7.65;;;;;;;12.48;91.46;102002.72;6249207;22;20084;-79
2023/09/15 06:57:47;;;;;;;14.88;8.13;;;;;;;12.56;90.82;102001.38;6249443;22;20023;-81
2023/09/15 07:00:14;;;;;;;8.75;7.70;;;;;;;12.62;91.49;102002.34;6222226;22;20075;-82
2023/09/15 07:02:41;;;;;;;19.35;8.05;;;;;;;12.73;91.67;101993.31;6222485;22;20028;-80
2023/09/15 07:05:08;;;;;;;11.88;8.10;;;;;;;12.79;91.08;101992.38;6249573;22;20017;-84
2023/09/15 07:07:34;;;;;;;14.02;7.80;;;;;;;12.84;90.93;101999.84;6249848;22;20110;-83
2023/09/15 07:10:01;;;;;;;10.18;7.47;;;;;;;12.93;90.79;101999.22;6249874;22;20023;-83
2023/09/15 07:12:28;;;;;;;14.43;7.68;;;;;;;13.00;90.85;101993.69;6221842;22;20020;-83
2023/09/15 07:14:54;;;;;;;10.90;7.63;;;;;;;13.15;90.97;101991.34;6250511;22;20087;-83
2023/09/15 07:17:21;;;;;;;10.68;7.75;;;;;;;13.25;90.87;101993.72;6256391;22;20055;-83
2023/09/15 07:19:48;;;;;;;11.73;7.80;;;;;;;13.34;90.50;101991.16;6254296;22;20592;-82
2023/09/15 07:22:14;;;;;;;13.35;8.13;;;;;;;13.43;90.49;101990.53;6222561;22;20021;-84
2023/09/15 07:24:41;;;;;;;15.52;7.55;;;;;;;13.52;89.96;101987.97;6249534;22;20012;-84
2023/09/15 07:27:09;;;;;;;12.65;7.78;;;;;;;13.64;89.80;101989.84;6248855;22;20020;-82
2023/09/15 07:29:36;;;;;;;11.82;7.38;;;;;;;13.72;89.84;101985.03;6222303;22;20083;-84
2023/09/15 07:32:04;;;;;;;10.40;8.07;;;;;;;13.85;89.48;101980.41;6249968;22;20379;-81
2023/09/15 07:34:31;;;;;;;10.30;7.70;;;;;;;13.99;89.65;101979.22;6251657;22;20454;-89
2023/09/15 07:36:59;;;;;;;9.55;7.50;;;;;;;14.13;88.75;101978.72;6226164;22;20012;-89
2023/09/15 07:39:26;;;;;;;16.80;8.15;;;;;;;14.28;88.48;101982.41;6225526;22;20017;-86
2023/09/15 07:41:56;;;;;;;12.75;7.95;;;;;;;14.39;88.43;101975.97;6197865;22;20012;-82
2023/09/15 07:44:23;;;;;;;14.77;8.13;;;;;;;14.46;88.66;101973.78;6223149;22;20446;-79
2023/09/15 07:46:49;;;;;;;17.92;8.38;;;;;;;14.62;87.90;101965.56;6248979;22;20027;-79
2023/09/15 07:49:16;;;;;;;14.68;7.95;;;;;;;14.75;87.47;101959.38;6221749;22;20021;-80
2023/09/15 07:51:43;;;;;;;14.20;8.38;;;;;;;14.90;86.48;101958.41;6248946;22;20022;-79
2023/09/15 07:54:09;;;;;;;14.10;8.02;;;;;;;14.98;86.82;101956.97;6248366;22;20017;-79
2023/09/15 07:56:36;;;;;;;8.70;7.60;;;;;;;15.10;86.16;101952.69;6248860;22;20021;-79
2023/09/15 07:59:03;;;;;;;13.63;8.02;;;;;;;15.26;85.03;101960.50;6249773;22;20095;-78
2023/09/15 08:01:30;;;;;;;10.35;7.35;;;;;;;15.40;84.92;101955.78;6246994;22;20023;-78
2023/09/15 08:03:56;;;;;;;11.02;8.00;;;;;;;15.53;83.77;101946.41;6249301;22;20024;-78
2023/09/15 08:06:25;;;;;;;8.57;7.28;;;;;;;15.69;84.59;101961.53;6248064;22;20020;-79
2023/09/15 08:08:52;;;;;;;13.00;7.70;;;;;;;15.90;83.61;101949.19;6247880;22;20445;-78
2023/09/15 08:11:19;;;;;;;9.25;7.28;;;;;;;16.06;82.63;101946.19;6246652;22;20017;-78
2023/09/15 08:13:46;;;;;;;7.40;6.68;;;;;;;16.17;81.69;101948.41;6219785;22;20075;-78
2023/09/15 08:16:13;;;;;;;22.08;7.70;;;;;;;16.28;80.65;101952.16;6246563;22;20024;-79
2023/09/15 08:18:40;;;;;;;13.77;7.38;;;;;;;16.40;80.81;101953.16;6246816;22;20039;-79
2023/09/15 08:21:07;;;;;;;9.07;7.43;;;;;;;16.48;79.93;101958.97;6248084;22;20099;-79
2023/09/15 08:23:33;;;;;;;11.23;6.97;;;;;;;16.63;79.91;101939.09;6196105;22;20055;-79
2023/09/15 08:26:01;;;;;;;11.48;7.75;;;;;;;16.78;79.25;101944.63;6222641;22;20013;-78
2023/09/15 08:28:28;;;;;;;10.02;7.05;;;;;;;16.96;78.80;101944.53;6195946;22;20024;-79
2023/09/15 08:30:54;;;;;;;10.65;6.97;;;;;;;17.04;78.19;101938.81;6249499;22;20017;-78
2023/09/15 08:33:21;;;;;;;9.82;7.32;;;;;;;17.17;78.27;101947.44;6248783;22;20040;-79
2023/09/15 08:35:48;;;;;;;13.88;7.55;;;;;;;17.30;77.64;101947.94;6197277;22;20016;-79
2023/09/15 08:38:14;;;;;;;9.52;7.65;;;;;;;17.47;76.55;101957.13;6248108;22;20047;-79
2023/09/15 08:41:27;;;;;;;8.77;7.28;;;;;;;17.61;76.68;101953.75;6248613;22;20017;-79
2023/09/15 08:43:55;;;;;;;9.63;6.97;;;;;;;17.70;75.04;101952.97;6178573;22;20020;-78
2023/09/15 08:46:25;;;;;;;14.25;7.70;;;;;;;17.79;74.94;101946.78;6221817;22;20017;-79
2023/09/15 08:48:57;;;;;;;12.20;7.72;;;;;;;18.02;74.72;101951.38;6221904;22;20020;-80
2023/09/15 08:51:25;;;;;;;15.07;7.18;;;;;;;18.13;73.57;101948.16;6248481;22;20483;-78
2023/09/15 08:53:56;;;;;;;9.93;7.22;;;;;;;18.25;73.25;101953.28;6221334;22;20024;-80
2023/09/15 08:56:24;;;;;;;8.50;7.20;;;;;;;18.35;72.39;101959.34;6221708;22;20522;-80
2023/09/15 08:58:51;;;;;;;13.95;7.05;;;;;;;18.44;71.77;101953.84;6252419;22;20017;-79
2023/09/15 09:01:19;;;;;;;8.73;7.82;;;;;;;18.55;71.79;101954.03;6250512;22;20017;-78
2023/09/15 09:03:45;;;;;;;7.82;7.03;;;;;;;18.69;71.92;101952.56;6250507;22;20064;-77
2023/09/15 09:06:14;;;;;;;8.48;7.10;;;;;;;18.86;70.45;101948.16;6250186;22;20362;-79
2023/09/15 09:08:42;;;;;;;12.07;7.15;;;;;;;18.95;69.51;101950.00;6249179;22;20435;-76
2023/09/15 09:11:09;;;;;;;13.15;7.30;;;;;;;19.17;69.81;101947.63;6249987;22;20810;-80
2023/09/15 09:13:36;;;;;;;7.47;6.78;;;;;;;19.25;67.96;101946.00;6250135;22;20016;-80
2023/09/15 09:16:13;;;;;;;8.95;7.15;;;;;;;19.37;68.75;101930.69;6250068;22;20024;-78
2023/09/15 09:18:40;;;;;;;8.18;6.85;;;;;;;19.51;65.90;101931.91;6250206;22;20440;-80
2023/09/15 09:21:07;;;;;;;7.38;6.30;;;;;;;19.65;65.49;101923.69;6222268;22;20035;-77
2023/09/15 09:23:34;;;;;;;9.35;6.50;;;;;;;19.85;64.93;101936.44;6249826;22;20027;-77
2023/09/15 09:26:10;;;;;;;8.88;6.72;;;;;;;19.96;63.15;101927.72;6223016;22;20032;-77
2023/09/15 09:28:38;;;;;;;7.00;6.30;;;;;;;19.96;61.80;101925.03;6250003;22;20016;-77
2023/09/15 09:31:05;;;;;;;10.60;6.53;;;;;;;20.01;61.36;101931.69;6250208;22;20079;-78
2023/09/15 09:33:32;;;;;;;8.70;5.80;;;;;;;20.08;62.04;101923.16;6249840;22;20048;-77
2023/09/15 09:36:08;;;;;;;9.45;5.63;;;;;;;20.22;62.28;101925.00;6249715;22;20095;-81
2023/09/15 09:38:35;;;;;;;7.10;6.30;;;;;;;20.34;61.15;101915.03;6198102;22;20552;-84
2023/09/15 09:41:03;;;;;;;10.50;6.50;;;;;;;20.36;60.69;101913.34;6223326;22;20036;-88
2023/09/15 09:43:33;;;;;;;8.98;6.60;;;;;;;20.40;60.28;101911.16;6250060;22;20013;-87
2023/09/15 09:46:03;;;;;;;9.27;6.72;;;;;;;20.56;60.24;101907.13;6250697;22;20016;-86
2023/09/15 09:48:29;;;;;;;11.00;6.70;;;;;;;20.64;59.23;101908.16;6222775;22;20032;-87
2023/09/15 09:50:56;;;;;;;10.40;6.95;;;;;;;20.63;59.34;101909.38;6251449;22;20028;-83
2023/09/15 09:53:32;;;;;;;9.85;6.55;;;;;;;20.62;59.42;101902.50;6250520;22;20017;-85
2023/09/15 09:56:00;;;;;;;9.35;7.32;;;;;;;20.58;58.31;101900.00;6250891;22;20478;-78
2023/09/15 09:58:27;;;;;;;9.15;6.32;;;;;;;20.58;58.06;101901.97;6250019;22;20451;-82
2023/09/15 10:00:53;;;;;;;14.93;6.47;;;;;;;20.60;57.86;101897.56;6250845;22;20041;-78
2023/09/15 10:03:21;;;;;;;8.18;6.95;;;;;;;20.67;56.78;101903.75;6249520;22;20048;-77
2023/09/15 10:05:49;;;;;;;6.90;6.20;;;;;;;20.70;56.08;101908.22;6249775;22;20023;-78
2023/09/15 10:08:16;;;;;;;12.15;6.45;;;;;;;20.69;55.86;101896.66;6222508;22;20455;-84
2023/09/15 10:10:44;;;;;;;10.25;5.85;;;;;;;20.84;57.04;101905.34;6222546;22;20092;-82
2023/09/15 10:13:12;;;;;;;11.57;6.45;;;;;;;20.98;56.07;101890.16;6250017;22;20415;-81
2023/09/15 10:15:41;;;;;;;9.10;6.45;;;;;;;21.04;55.98;101888.22;6249818;22;20023;-81
2023/09/15 10:18:09;;;;;;;8.50;6.35;;;;;;;21.14;56.40;101889.50;6249889;22;20013;-84
2023/09/15 10:20:38;;;;;;;6.43;5.63;;;;;;;21.15;55.52;101887.56;6249283;22;20023;-82
2023/09/15 10:23:06;;;;;;;8.15;5.90;;;;;;;21.09;54.84;101890.22;6249786;22;20020;-84
2023/09/15 10:25:47;;;;;;;6.60;5.93;;;;;;;21.12;55.53;101885.81;6249721;22;20470;-84
2023/09/15 10:28:14;;;;;;;10.48;6.30;;;;;;;21.09;54.82;101884.81;6249495;22;20039;-81
2023/09/15 10:31:01;;;;;;;9.60;6.28;;;;;;;21.13;55.28;101884.59;6250319;22;20052;-79
2023/09/15 10:33:28;;;;;;;8.07;5.55;;;;;;;21.16;55.75;101875.50;6249054;22;20012;-81
2023/09/15 10:36:03;;;;;;;6.28;5.70;;;;;;;21.20;54.26;101875.97;6223313;22;20016;-80
2023/09/15 10:38:34;;;;;;;6.10;5.50;;;;;;;21.23;54.77;101877.75;6249964;22;20088;-81
2023/09/15 10:41:05;;;;;;;6.70;6.10;;;;;;;21.32;53.55;101874.09;6258479;22;20024;-82
2023/09/15 10:43:32;;;;;;;7.00;5.97;;;;;;;21.32;54.44;101866.72;6249988;22;20108;-86
2023/09/15 10:46:02;;;;;;;8.32;5.50;;;;;;;21.33;53.43;101862.78;6249924;22;20047;-84
2023/09/15 10:48:44;;;;;;;9.52;5.80;;;;;;;21.35;54.48;101860.31;6195683;22;20438;-82
2023/09/15 10:51:11;;;;;;;8.25;5.55;;;;;;;21.30;54.08;101855.63;6249523;22;20128;-84
2023/09/15 10:53:42;;;;;;;5.93;5.25;;;;;;;21.29;53.50;101860.28;6249484;22;20403;-81
2023/09/15 10:56:09;;;;;;;6.20;5.57;;;;;;;21.32;53.41;101855.88;6249387;22;20048;-86
2023/09/15 10:58:38;;;;;;;6.80;5.72;;;;;;;21.32;52.87;101855.88;6249794;22;20063;-83
2023/09/15 11:01:05;;;;;;;6.72;5.30;;;;;;;21.35;53.28;101854.91;6250258;22;20020;-87
2023/09/15 11:03:32;;;;;;;6.65;5.05;;;;;;;21.34;53.51;101847.25;6249128;22;20537;-83
2023/09/15 11:05:59;;;;;;;7.10;5.53;;;;;;;21.34;53.04;101831.00;6250431;22;20019;-87
2023/09/15 11:08:26;;;;;;;5.57;5.18;;;;;;;21.38;53.03;101840.38;6249384;22;20017;-87
2023/09/15 11:10:59;;;;;;;11.85;5.57;;;;;;;21.42;52.90;101832.75;6250440;22;20084;-88
2023/09/15 11:13:25;;;;;;;6.88;5.38;;;;;;;21.41;52.56;101831.28;6249743;22;20016;-86
2023/09/15 11:15:52;;;;;;;5.13;4.63;;;;;;;21.42;52.44;101834.72;6250772;22;20399;-86
2023/09/15 11:18:18;;;;;;;5.30;4.80;;;;;;;21.33;52.55;101826.81;6249290;22;20055;-88
2023/09/15 11:20:45;;;;;;;5.57;5.00;;;;;;;21.33;52.26;101826.81;6250275;22;20024;-87
2023/09/15 11:23:16;;;;;;;5.70;5.10;;;;;;;21.33;53.09;101824.84;6249370;22;20037;-88
2023/09/15 11:25:44;;;;;;;5.75;5.28;;;;;;;21.34;53.57;101820.91;6250285;22;20013;-87
2023/09/15 11:28:16;;;;;;;6.25;5.32;;;;;;;21.34;53.30;101812.06;6249890;22;20024;-87